ARP624 VOMM-VCBI
Flight info
| Callsign | ARP624 |
|---|---|
| Flight time | 1h 0m |
| Altitude | 35000 |
| Route | TEGUT2B TEGUT V7 SAGOR SAGOR1A |
| Aircraft | B738/M-SDE2E3FGHIRWXY/LB1 |
Departure
| Time | 2026-05-04 19:05 |
|---|---|
| Airport | Chennai International Airport (VOMM) |
Arrival
| Time | 2026-05-04 20:06 |
|---|---|
| Airport | Bandaranaike International Colombo Airport (VCBI) |
| Time | Latitude | Longitude | Altitude | Speed | Heading |
|---|---|---|---|---|---|
| 2026-05-04 18:43 | 12.98398 | 80.16442 | 54 ft | 0 kts | 158° |
| 2026-05-04 18:55 | 12.98399 | 80.16442 | 54 ft | 2 kts | 158° |
| 2026-05-04 18:56 | 12.98414 | 80.16436 | 47 ft | 2 kts | 158° |
| 2026-05-04 18:56 | 12.98429 | 80.16430 | 51 ft | 2 kts | 158° |
| 2026-05-04 18:56 | 12.98439 | 80.16426 | 47 ft | 2 kts | 158° |
| 2026-05-04 18:56 | 12.98454 | 80.16418 | 47 ft | 2 kts | 127° |
| 2026-05-04 18:57 | 12.98458 | 80.16404 | 47 ft | 1 kts | 67° |
| 2026-05-04 18:57 | 12.98457 | 80.16401 | 47 ft | 0 kts | 65° |
| 2026-05-04 18:57 | 12.98468 | 80.16427 | 48 ft | 8 kts | 65° |
| 2026-05-04 18:58 | 12.98487 | 80.16474 | 54 ft | 13 kts | 74° |
| 2026-05-04 18:58 | 12.98513 | 80.16575 | 54 ft | 15 kts | 75° |
| 2026-05-04 18:58 | 12.98543 | 80.16637 | 53 ft | 9 kts | 63° |
| 2026-05-04 18:58 | 12.98566 | 80.16694 | 50 ft | 9 kts | 67° |
| 2026-05-04 18:59 | 12.98612 | 80.16761 | 54 ft | 9 kts | 15° |
| 2026-05-04 18:59 | 12.98655 | 80.16758 | 51 ft | 9 kts | 344° |
| 2026-05-04 18:59 | 12.98738 | 80.16734 | 54 ft | 9 kts | 7° |
| 2026-05-04 18:59 | 12.98766 | 80.16767 | 53 ft | 9 kts | 63° |
| 2026-05-04 19:00 | 12.98801 | 80.16848 | 53 ft | 10 kts | 69° |
| 2026-05-04 19:00 | 12.98818 | 80.16893 | 54 ft | 11 kts | 69° |
| 2026-05-04 19:00 | 12.98850 | 80.16982 | 50 ft | 16 kts | 69° |
| 2026-05-04 19:00 | 12.98894 | 80.17101 | 52 ft | 20 kts | 69° |
| 2026-05-04 19:01 | 12.98951 | 80.17243 | 54 ft | 23 kts | 62° |
| 2026-05-04 19:01 | 12.99038 | 80.17448 | 49 ft | 23 kts | 69° |
| 2026-05-04 19:01 | 12.99093 | 80.17598 | 49 ft | 22 kts | 69° |
| 2026-05-04 19:01 | 12.99131 | 80.17681 | 53 ft | 5 kts | 50° |
| 2026-05-04 19:02 | 12.99167 | 80.17703 | 55 ft | 12 kts | 21° |
| 2026-05-04 19:02 | 12.99234 | 80.17785 | 55 ft | 20 kts | 70° |
| 2026-05-04 19:02 | 12.99281 | 80.17939 | 50 ft | 25 kts | 73° |
| 2026-05-04 19:02 | 12.99337 | 80.18073 | 53 ft | 6 kts | 64° |
| 2026-05-04 19:03 | 12.99353 | 80.18109 | 52 ft | 6 kts | 65° |
| 2026-05-04 19:03 | 12.99404 | 80.18111 | 54 ft | 12 kts | 329° |
| 2026-05-04 19:03 | 12.99433 | 80.18012 | 52 ft | 10 kts | 251° |
| 2026-05-04 19:03 | 12.99432 | 80.18009 | 53 ft | 0 kts | 250° |
| 2026-05-04 19:04 | 12.99431 | 80.18007 | 53 ft | 1 kts | 251° |
| 2026-05-04 19:04 | 12.99416 | 80.17965 | 50 ft | 31 kts | 249° |
| 2026-05-04 19:04 | 12.99193 | 80.17404 | 55 ft | 136 kts | 247° |
| 2026-05-04 19:05 | 12.98815 | 80.16289 | 558 ft | 185 kts | 251° |
| 2026-05-04 19:05 | 12.98324 | 80.15075 | 1937 ft | 188 kts | 239° |
| 2026-05-04 19:05 | 12.97746 | 80.13811 | 2995 ft | 203 kts | 244° |
| 2026-05-04 19:05 | 12.97242 | 80.12427 | 3831 ft | 211 kts | 247° |
| 2026-05-04 19:06 | 12.96729 | 80.10977 | 4635 ft | 222 kts | 248° |
| 2026-05-04 19:06 | 12.96202 | 80.09503 | 5474 ft | 225 kts | 249° |
| 2026-05-04 19:06 | 12.95647 | 80.07979 | 6289 ft | 232 kts | 249° |
| 2026-05-04 19:06 | 12.95076 | 80.06429 | 7270 ft | 232 kts | 249° |
| 2026-05-04 19:07 | 12.94494 | 80.04869 | 8212 ft | 236 kts | 250° |
| 2026-05-04 19:07 | 12.93902 | 80.03287 | 9142 ft | 241 kts | 250° |
| 2026-05-04 19:07 | 12.93293 | 80.01669 | 10076 ft | 244 kts | 250° |
| 2026-05-04 19:07 | 12.92681 | 80.00048 | 10998 ft | 245 kts | 250° |
| 2026-05-04 19:08 | 12.92060 | 79.98409 | 11886 ft | 248 kts | 251° |
| 2026-05-04 19:08 | 12.91433 | 79.96757 | 12821 ft | 249 kts | 251° |
| 2026-05-04 19:08 | 12.90811 | 79.95120 | 13744 ft | 250 kts | 251° |
| 2026-05-04 19:08 | 12.90178 | 79.93451 | 14413 ft | 252 kts | 250° |
| 2026-05-04 19:09 | 12.89452 | 79.91811 | 14740 ft | 254 kts | 244° |
| 2026-05-04 19:09 | 12.88603 | 79.90219 | 14808 ft | 253 kts | 242° |
| 2026-05-04 19:09 | 12.87742 | 79.88653 | 14834 ft | 252 kts | 242° |
| 2026-05-04 19:09 | 12.86876 | 79.87070 | 14853 ft | 256 kts | 242° |
| 2026-05-04 19:10 | 12.86007 | 79.85469 | 14856 ft | 259 kts | 242° |
| 2026-05-04 19:10 | 12.85131 | 79.83848 | 14855 ft | 261 kts | 242° |
| 2026-05-04 19:10 | 12.84265 | 79.82238 | 14851 ft | 262 kts | 242° |
| 2026-05-04 19:10 | 12.83389 | 79.80605 | 14849 ft | 262 kts | 243° |
| 2026-05-04 19:11 | 12.82514 | 79.78970 | 14860 ft | 262 kts | 243° |
| 2026-05-04 19:11 | 12.81638 | 79.77333 | 14839 ft | 261 kts | 243° |
| 2026-05-04 19:11 | 12.80771 | 79.75712 | 14846 ft | 260 kts | 243° |
| 2026-05-04 19:11 | 12.79879 | 79.74043 | 14923 ft | 275 kts | 243° |
| 2026-05-04 19:12 | 12.78879 | 79.72262 | 15127 ft | 304 kts | 234° |
| 2026-05-04 19:12 | 12.75003 | 79.69828 | 15502 ft | 361 kts | 202° |
| 2026-05-04 19:12 | 12.72572 | 79.68886 | 15659 ft | 384 kts | 201° |
| 2026-05-04 19:13 | 12.70005 | 79.67932 | 15979 ft | 399 kts | 200° |
| 2026-05-04 19:13 | 12.67383 | 79.66959 | 16634 ft | 401 kts | 200° |
| 2026-05-04 19:13 | 12.64769 | 79.65977 | 17452 ft | 400 kts | 201° |
| 2026-05-04 19:13 | 12.62151 | 79.64982 | 18106 ft | 403 kts | 201° |
| 2026-05-04 19:14 | 12.59508 | 79.63966 | 18572 ft | 408 kts | 201° |
| 2026-05-04 19:14 | 12.56846 | 79.62936 | 19121 ft | 410 kts | 201° |
| 2026-05-04 19:14 | 12.54202 | 79.61908 | 19616 ft | 413 kts | 201° |
| 2026-05-04 19:14 | 12.51505 | 79.60858 | 20101 ft | 417 kts | 201° |
| 2026-05-04 19:15 | 12.48783 | 79.59798 | 20582 ft | 420 kts | 201° |
| 2026-05-04 19:15 | 12.46047 | 79.58732 | 21045 ft | 423 kts | 201° |
| 2026-05-04 19:15 | 12.43286 | 79.57657 | 21504 ft | 426 kts | 200° |
| 2026-05-04 19:15 | 12.40503 | 79.56573 | 21939 ft | 429 kts | 200° |
| 2026-05-04 19:16 | 12.37709 | 79.55486 | 22357 ft | 432 kts | 200° |
| 2026-05-04 19:16 | 12.34877 | 79.54384 | 22772 ft | 435 kts | 200° |
| 2026-05-04 19:16 | 12.32040 | 79.53281 | 23171 ft | 438 kts | 200° |
| 2026-05-04 19:16 | 12.29218 | 79.52184 | 23524 ft | 441 kts | 200° |
| 2026-05-04 19:17 | 12.26335 | 79.51063 | 23841 ft | 444 kts | 200° |
| 2026-05-04 19:17 | 12.23441 | 79.49938 | 24164 ft | 446 kts | 200° |
| 2026-05-04 19:17 | 12.20534 | 79.48808 | 24476 ft | 449 kts | 200° |
| 2026-05-04 19:17 | 12.17607 | 79.47671 | 24769 ft | 451 kts | 200° |
| 2026-05-04 19:18 | 12.14669 | 79.46529 | 25095 ft | 453 kts | 200° |
| 2026-05-04 19:18 | 12.11717 | 79.45383 | 25414 ft | 454 kts | 200° |
| 2026-05-04 19:18 | 12.08752 | 79.44232 | 25660 ft | 458 kts | 200° |
| 2026-05-04 19:18 | 12.05809 | 79.43090 | 25940 ft | 460 kts | 200° |
| 2026-05-04 19:19 | 12.02814 | 79.41928 | 26220 ft | 461 kts | 200° |
| 2026-05-04 19:19 | 11.99815 | 79.40764 | 26510 ft | 463 kts | 200° |
| 2026-05-04 19:19 | 11.96792 | 79.39592 | 26758 ft | 465 kts | 200° |
| 2026-05-04 19:19 | 11.93756 | 79.38415 | 27022 ft | 467 kts | 200° |
| 2026-05-04 19:20 | 11.90710 | 79.37234 | 27293 ft | 469 kts | 201° |
| 2026-05-04 19:20 | 11.87656 | 79.36050 | 27529 ft | 471 kts | 201° |
| 2026-05-04 19:20 | 11.84583 | 79.34859 | 27743 ft | 474 kts | 201° |
| 2026-05-04 19:20 | 11.81498 | 79.33664 | 27983 ft | 475 kts | 200° |
| 2026-05-04 19:21 | 11.78445 | 79.32481 | 28246 ft | 476 kts | 200° |
| 2026-05-04 19:21 | 11.75345 | 79.31281 | 28470 ft | 478 kts | 200° |
| 2026-05-04 19:21 | 11.72227 | 79.30073 | 28650 ft | 480 kts | 201° |
| 2026-05-04 19:21 | 11.69090 | 79.28859 | 28832 ft | 482 kts | 200° |
| 2026-05-04 19:22 | 11.65953 | 79.27645 | 29035 ft | 484 kts | 200° |
| 2026-05-04 19:22 | 11.62790 | 79.26459 | 29299 ft | 483 kts | 196° |
| 2026-05-04 19:22 | 11.59482 | 79.25967 | 29644 ft | 482 kts | 180° |
| 2026-05-04 19:22 | 11.56159 | 79.26348 | 29990 ft | 481 kts | 166° |
| 2026-05-04 19:23 | 11.53084 | 79.27525 | 30246 ft | 481 kts | 154° |
| 2026-05-04 19:23 | 11.50118 | 79.29105 | 30508 ft | 481 kts | 152° |
| 2026-05-04 19:23 | 11.47173 | 79.30740 | 30741 ft | 482 kts | 152° |
| 2026-05-04 19:23 | 11.44229 | 79.32370 | 30997 ft | 481 kts | 152° |
| 2026-05-04 19:24 | 11.41282 | 79.33972 | 31298 ft | 481 kts | 153° |
| 2026-05-04 19:24 | 11.38327 | 79.35551 | 31613 ft | 480 kts | 153° |
| 2026-05-04 19:24 | 11.35362 | 79.37120 | 31928 ft | 479 kts | 153° |
| 2026-05-04 19:24 | 11.32415 | 79.38675 | 32218 ft | 479 kts | 153° |
| 2026-05-04 19:25 | 11.29447 | 79.40243 | 32521 ft | 479 kts | 153° |
| 2026-05-04 19:25 | 11.26531 | 79.41780 | 32839 ft | 478 kts | 153° |
| 2026-05-04 19:25 | 11.23582 | 79.43332 | 33162 ft | 478 kts | 153° |
| 2026-05-04 19:25 | 11.20630 | 79.44885 | 33477 ft | 477 kts | 153° |
| 2026-05-04 19:26 | 11.17676 | 79.46439 | 33798 ft | 477 kts | 153° |
| 2026-05-04 19:26 | 11.14730 | 79.47988 | 34094 ft | 477 kts | 153° |
| 2026-05-04 19:26 | 11.11785 | 79.49537 | 34411 ft | 476 kts | 153° |
| 2026-05-04 19:26 | 11.08846 | 79.51083 | 34749 ft | 474 kts | 153° |
| 2026-05-04 19:27 | 11.05904 | 79.52630 | 34838 ft | 477 kts | 153° |
| 2026-05-04 19:27 | 11.00069 | 79.55698 | 34845 ft | 474 kts | 154° |
| 2026-05-04 19:28 | 10.94226 | 79.58769 | 34849 ft | 471 kts | 154° |
| 2026-05-04 19:28 | 10.88420 | 79.61819 | 34846 ft | 468 kts | 154° |
| 2026-05-04 19:29 | 10.82643 | 79.64852 | 34846 ft | 467 kts | 154° |
| 2026-05-04 19:29 | 10.76909 | 79.67863 | 34846 ft | 466 kts | 154° |
| 2026-05-04 19:30 | 10.71145 | 79.70887 | 34846 ft | 466 kts | 154° |
| 2026-05-04 19:30 | 10.65387 | 79.73912 | 34847 ft | 466 kts | 153° |
| 2026-05-04 19:31 | 10.59623 | 79.76941 | 34842 ft | 466 kts | 153° |
| 2026-05-04 19:31 | 10.53917 | 79.79938 | 34840 ft | 465 kts | 153° |
| 2026-05-04 19:32 | 10.48170 | 79.82955 | 34842 ft | 464 kts | 154° |
| 2026-05-04 19:32 | 10.42441 | 79.85963 | 34842 ft | 463 kts | 153° |
| 2026-05-04 19:33 | 10.36716 | 79.88965 | 34841 ft | 462 kts | 154° |
| 2026-05-04 19:33 | 10.31046 | 79.91938 | 34840 ft | 461 kts | 154° |
| 2026-05-04 19:34 | 10.25350 | 79.94924 | 34842 ft | 461 kts | 154° |
| 2026-05-04 19:34 | 10.19656 | 79.97908 | 34844 ft | 460 kts | 153° |
| 2026-05-04 19:35 | 10.13976 | 80.00883 | 34846 ft | 460 kts | 154° |
| 2026-05-04 19:35 | 10.08610 | 80.03692 | 34845 ft | 461 kts | 154° |
| 2026-05-04 19:36 | 10.02910 | 80.06676 | 34844 ft | 461 kts | 154° |
| 2026-05-04 19:36 | 9.99944 | 80.07902 | 34835 ft | 460 kts | 167° |
| 2026-05-04 19:36 | 9.96980 | 80.08290 | 34852 ft | 459 kts | 180° |
| 2026-05-04 19:37 | 9.90589 | 80.08143 | 34849 ft | 460 kts | 182° |
| 2026-05-04 19:37 | 9.84229 | 80.07924 | 34846 ft | 461 kts | 182° |
| 2026-05-04 19:38 | 9.77808 | 80.07760 | 34849 ft | 462 kts | 181° |
| 2026-05-04 19:38 | 9.71411 | 80.07631 | 34846 ft | 462 kts | 181° |
| 2026-05-04 19:39 | 9.64987 | 80.07508 | 34846 ft | 462 kts | 181° |
| 2026-05-04 19:39 | 9.58562 | 80.07384 | 34853 ft | 462 kts | 181° |
| 2026-05-04 19:40 | 9.52185 | 80.07258 | 34854 ft | 461 kts | 181° |
| 2026-05-04 19:40 | 9.45769 | 80.07132 | 34853 ft | 461 kts | 181° |
| 2026-05-04 19:41 | 9.39357 | 80.07006 | 34853 ft | 461 kts | 181° |
| 2026-05-04 19:41 | 9.32937 | 80.06879 | 34855 ft | 461 kts | 181° |
| 2026-05-04 19:42 | 9.26567 | 80.06755 | 34855 ft | 461 kts | 181° |
| 2026-05-04 19:42 | 9.20150 | 80.06630 | 34852 ft | 461 kts | 181° |
| 2026-05-04 19:43 | 9.13731 | 80.06506 | 34857 ft | 461 kts | 181° |
| 2026-05-04 19:43 | 9.07316 | 80.06381 | 34855 ft | 461 kts | 181° |
| 2026-05-04 19:44 | 9.00895 | 80.06256 | 34857 ft | 461 kts | 181° |
| 2026-05-04 19:44 | 8.94522 | 80.06132 | 34851 ft | 462 kts | 181° |
| 2026-05-04 19:45 | 8.88092 | 80.06008 | 34858 ft | 462 kts | 181° |
| 2026-05-04 19:45 | 8.81659 | 80.05883 | 34844 ft | 463 kts | 181° |
| 2026-05-04 19:45 | 8.78410 | 80.05820 | 34170 ft | 470 kts | 181° |
| 2026-05-04 19:46 | 8.75153 | 80.05757 | 33351 ft | 468 kts | 181° |
| 2026-05-04 19:46 | 8.71898 | 80.05693 | 32448 ft | 468 kts | 181° |
| 2026-05-04 19:46 | 8.68675 | 80.05631 | 31524 ft | 470 kts | 181° |
| 2026-05-04 19:46 | 8.65397 | 80.05567 | 30521 ft | 472 kts | 181° |
| 2026-05-04 19:47 | 8.62105 | 80.05504 | 29415 ft | 475 kts | 180° |
| 2026-05-04 19:47 | 8.58786 | 80.05439 | 28200 ft | 477 kts | 180° |
| 2026-05-04 19:47 | 8.55466 | 80.05375 | 27004 ft | 479 kts | 180° |
| 2026-05-04 19:47 | 8.52129 | 80.05310 | 25817 ft | 480 kts | 180° |
| 2026-05-04 19:48 | 8.48801 | 80.05245 | 24869 ft | 476 kts | 180° |
| 2026-05-04 19:48 | 8.45547 | 80.05182 | 23955 ft | 472 kts | 180° |
| 2026-05-04 19:48 | 8.42273 | 80.05118 | 22958 ft | 468 kts | 180° |
| 2026-05-04 19:48 | 8.39031 | 80.05056 | 21970 ft | 463 kts | 180° |
| 2026-05-04 19:49 | 8.35833 | 80.04994 | 21061 ft | 456 kts | 180° |
| 2026-05-04 19:49 | 8.32690 | 80.04933 | 20173 ft | 450 kts | 180° |
| 2026-05-04 19:49 | 8.29576 | 80.04873 | 19282 ft | 444 kts | 181° |
| 2026-05-04 19:49 | 8.26502 | 80.04814 | 18408 ft | 440 kts | 181° |
| 2026-05-04 19:50 | 8.23453 | 80.04755 | 17439 ft | 436 kts | 181° |
| 2026-05-04 19:50 | 8.20481 | 80.04697 | 16548 ft | 431 kts | 181° |
| 2026-05-04 19:50 | 8.17510 | 80.04639 | 16195 ft | 422 kts | 181° |
| 2026-05-04 19:50 | 8.14639 | 80.04584 | 16057 ft | 404 kts | 181° |
| 2026-05-04 19:51 | 8.11889 | 80.04531 | 15924 ft | 386 kts | 181° |
| 2026-05-04 19:51 | 8.09262 | 80.04480 | 15865 ft | 370 kts | 181° |
| 2026-05-04 19:51 | 8.06746 | 80.04432 | 15851 ft | 354 kts | 181° |
| 2026-05-04 19:51 | 8.04328 | 80.04386 | 15712 ft | 344 kts | 181° |
| 2026-05-04 19:52 | 8.01914 | 80.04340 | 14944 ft | 351 kts | 181° |
| 2026-05-04 19:52 | 7.99459 | 80.04293 | 14020 ft | 364 kts | 181° |
| 2026-05-04 19:52 | 7.96898 | 80.04244 | 13106 ft | 372 kts | 181° |
| 2026-05-04 19:52 | 7.94328 | 80.04195 | 12729 ft | 363 kts | 181° |
| 2026-05-04 19:53 | 7.91864 | 80.04147 | 12618 ft | 346 kts | 181° |
| 2026-05-04 19:53 | 7.89513 | 80.04102 | 12519 ft | 331 kts | 181° |
| 2026-05-04 19:53 | 7.87256 | 80.04058 | 12433 ft | 318 kts | 181° |
| 2026-05-04 19:53 | 7.85094 | 80.04017 | 12353 ft | 305 kts | 181° |
| 2026-05-04 19:54 | 7.83007 | 80.03977 | 12217 ft | 296 kts | 181° |
| 2026-05-04 19:54 | 7.80987 | 80.03938 | 11924 ft | 293 kts | 181° |
| 2026-05-04 19:54 | 7.78969 | 80.03900 | 11486 ft | 288 kts | 181° |
| 2026-05-04 19:54 | 7.76959 | 80.03861 | 10919 ft | 289 kts | 180° |
| 2026-05-04 19:55 | 7.74955 | 80.03823 | 10393 ft | 288 kts | 180° |
| 2026-05-04 19:55 | 7.72964 | 80.03785 | 9904 ft | 285 kts | 180° |
| 2026-05-04 19:55 | 7.70985 | 80.03747 | 9405 ft | 283 kts | 181° |
| 2026-05-04 19:55 | 7.69030 | 80.03710 | 8923 ft | 279 kts | 181° |
| 2026-05-04 19:56 | 7.67105 | 80.03673 | 8451 ft | 275 kts | 181° |
| 2026-05-04 19:56 | 7.65229 | 80.03637 | 7990 ft | 271 kts | 181° |
| 2026-05-04 19:56 | 7.63355 | 80.03602 | 7504 ft | 269 kts | 182° |
| 2026-05-04 19:56 | 7.61488 | 80.03566 | 7028 ft | 267 kts | 182° |
| 2026-05-04 19:57 | 7.59640 | 80.03530 | 6565 ft | 265 kts | 182° |
| 2026-05-04 19:57 | 7.57808 | 80.03495 | 6115 ft | 262 kts | 182° |
| 2026-05-04 19:57 | 7.55992 | 80.03461 | 5639 ft | 259 kts | 183° |
| 2026-05-04 19:57 | 7.54202 | 80.03427 | 5200 ft | 256 kts | 183° |
| 2026-05-04 19:58 | 7.52431 | 80.03393 | 4771 ft | 253 kts | 184° |
| 2026-05-04 19:58 | 7.50680 | 80.03360 | 4328 ft | 250 kts | 184° |
| 2026-05-04 19:58 | 7.48979 | 80.03327 | 3952 ft | 245 kts | 184° |
| 2026-05-04 19:58 | 7.47305 | 80.03295 | 3654 ft | 237 kts | 184° |
| 2026-05-04 19:59 | 7.45681 | 80.03264 | 3372 ft | 230 kts | 184° |
| 2026-05-04 19:59 | 7.44097 | 80.03233 | 3082 ft | 225 kts | 184° |
| 2026-05-04 19:59 | 7.42560 | 80.03203 | 2853 ft | 216 kts | 184° |
| 2026-05-04 19:59 | 7.41099 | 80.03176 | 2744 ft | 204 kts | 184° |
| 2026-05-04 20:00 | 7.39710 | 80.03151 | 2715 ft | 196 kts | 184° |
| 2026-05-04 20:00 | 7.38349 | 80.03124 | 2682 ft | 199 kts | 184° |
| 2026-05-04 20:00 | 7.37012 | 80.02847 | 2458 ft | 201 kts | 213° |
| 2026-05-04 20:00 | 7.35904 | 80.02018 | 2333 ft | 197 kts | 218° |
| 2026-05-04 20:01 | 7.34822 | 80.01217 | 2170 ft | 188 kts | 218° |
| 2026-05-04 20:01 | 7.33810 | 80.00453 | 2053 ft | 176 kts | 218° |
| 2026-05-04 20:01 | 7.32851 | 79.99719 | 1936 ft | 173 kts | 218° |
| 2026-05-04 20:01 | 7.31891 | 79.98983 | 1816 ft | 173 kts | 217° |
| 2026-05-04 20:02 | 7.30937 | 79.98255 | 1713 ft | 171 kts | 217° |
| 2026-05-04 20:02 | 7.29986 | 79.97526 | 1614 ft | 173 kts | 217° |
| 2026-05-04 20:02 | 7.29008 | 79.96772 | 1553 ft | 183 kts | 217° |
| 2026-05-04 20:02 | 7.28019 | 79.96009 | 1537 ft | 180 kts | 217° |
| 2026-05-04 20:03 | 7.27052 | 79.95263 | 1535 ft | 173 kts | 217° |
| 2026-05-04 20:03 | 7.26103 | 79.94531 | 1514 ft | 169 kts | 217° |
| 2026-05-04 20:03 | 7.25204 | 79.93838 | 1438 ft | 161 kts | 217° |
| 2026-05-04 20:03 | 7.24339 | 79.93171 | 1260 ft | 150 kts | 217° |
| 2026-05-04 20:04 | 7.23556 | 79.92566 | 1054 ft | 135 kts | 217° |
| 2026-05-04 20:04 | 7.22843 | 79.92016 | 923 ft | 128 kts | 218° |
| 2026-05-04 20:04 | 7.22120 | 79.91458 | 766 ft | 132 kts | 216° |
| 2026-05-04 20:04 | 7.21379 | 79.90887 | 586 ft | 135 kts | 216° |
| 2026-05-04 20:05 | 7.20649 | 79.90325 | 407 ft | 131 kts | 214° |
| 2026-05-04 20:05 | 7.19903 | 79.89749 | 224 ft | 136 kts | 215° |
| 2026-05-04 20:05 | 7.19159 | 79.89174 | 39 ft | 133 kts | 214° |
| 2026-05-04 20:05 | 7.18507 | 79.88673 | 27 ft | 92 kts | 217° |
| 2026-05-04 20:06 | 7.18160 | 79.88414 | 27 ft | 49 kts | 219° |
| 2026-05-04 20:06 | 7.17944 | 79.88239 | 28 ft | 23 kts | 217° |
| 2026-05-04 20:06 | 7.17837 | 79.88260 | 28 ft | 12 kts | 122° |
| 2026-05-04 20:06 | 7.17795 | 79.88339 | 27 ft | 14 kts | 83° |
| 2026-05-04 20:07 | 7.17854 | 79.88414 | 27 ft | 12 kts | 78° |
| 2026-05-04 20:07 | 7.17828 | 79.88479 | 26 ft | 10 kts | 126° |
| 2026-05-04 20:07 | 7.17800 | 79.88511 | 26 ft | 3 kts | 129° |
| 2026-05-04 20:07 | 7.17771 | 79.88537 | 26 ft | 3 kts | 183° |
| 2026-05-04 20:08 | 7.17725 | 79.88500 | 26 ft | 12 kts | 219° |
| 2026-05-04 20:08 | 7.17695 | 79.88477 | 26 ft | 1 kts | 216° |